TRA6257 EHRD-LDSP
Flight info
| Callsign | TRA6257 |
|---|---|
| Flight time | 1h 52m |
| Altitude | 37000 |
| Route | LUNIX Z739 MISGO DCT DOJOH DCT DODEN DCT NEGIX DCT DINKU M867 XERUM DCT BAVAX DCT RADIZ DCT URAVA DCT GIRDA DCT ULPIN DCT SAL |
| Aircraft | B738/M-SDE2E3FGHIRWXY/LB1 |
Departure
| Time | 2026-05-07 11:43 |
|---|---|
| Airport | Rotterdam The Hague Airport (EHRD) |
Arrival
| Time | 2026-05-07 13:35 |
|---|---|
| Airport | Split Saint Jerome Airport (LDSP) |
| Time | Latitude | Longitude | Altitude | Speed | Heading |
|---|---|---|---|---|---|
| 2026-05-07 11:00 | 51.94913 | 4.43532 | -7 ft | 0 kts | 327° |
| 2026-05-07 11:39 | 51.94930 | 4.43515 | -7 ft | 7 kts | 338° |
| 2026-05-07 11:39 | 51.94984 | 4.43580 | -7 ft | 11 kts | 56° |
| 2026-05-07 11:39 | 51.95026 | 4.43681 | -7 ft | 10 kts | 56° |
| 2026-05-07 11:40 | 51.95087 | 4.43675 | -7 ft | 11 kts | 326° |
| 2026-05-07 11:40 | 51.95184 | 4.43573 | -7 ft | 18 kts | 327° |
| 2026-05-07 11:40 | 51.95260 | 4.43476 | -7 ft | 10 kts | 279° |
| 2026-05-07 11:40 | 51.95229 | 4.43368 | -7 ft | 10 kts | 236° |
| 2026-05-07 11:41 | 51.95191 | 4.43274 | -7 ft | 10 kts | 236° |
| 2026-05-07 11:41 | 51.95145 | 4.43145 | -7 ft | 15 kts | 246° |
| 2026-05-07 11:41 | 51.95115 | 4.42992 | -7 ft | 13 kts | 275° |
| 2026-05-07 11:41 | 51.95173 | 4.42886 | -7 ft | 12 kts | 326° |
| 2026-05-07 11:42 | 51.95238 | 4.42899 | -7 ft | 7 kts | 54° |
| 2026-05-07 11:42 | 51.95264 | 4.42964 | -7 ft | 14 kts | 56° |
| 2026-05-07 11:42 | 51.95451 | 4.43429 | -7 ft | 86 kts | 57° |
| 2026-05-07 11:42 | 51.95894 | 4.44534 | -7 ft | 147 kts | 58° |
| 2026-05-07 11:43 | 51.96506 | 4.46091 | 404 ft | 164 kts | 57° |
| 2026-05-07 11:43 | 51.97115 | 4.47515 | 1231 ft | 158 kts | 49° |
| 2026-05-07 11:43 | 51.97784 | 4.48970 | 1788 ft | 165 kts | 56° |
| 2026-05-07 11:43 | 51.98371 | 4.50611 | 2220 ft | 176 kts | 63° |
| 2026-05-07 11:44 | 51.98872 | 4.52475 | 2686 ft | 184 kts | 65° |
| 2026-05-07 11:44 | 51.99401 | 4.54435 | 3024 ft | 200 kts | 65° |
| 2026-05-07 11:44 | 52.00040 | 4.56580 | 3362 ft | 218 kts | 58° |
| 2026-05-07 11:44 | 52.01125 | 4.58380 | 3735 ft | 234 kts | 30° |
| 2026-05-07 11:45 | 52.02652 | 4.59435 | 4278 ft | 244 kts | 19° |
| 2026-05-07 11:45 | 52.04277 | 4.60396 | 4730 ft | 258 kts | 23° |
| 2026-05-07 11:45 | 52.05817 | 4.61894 | 5379 ft | 263 kts | 40° |
| 2026-05-07 11:45 | 52.07093 | 4.63998 | 6090 ft | 265 kts | 48° |
| 2026-05-07 11:46 | 52.08315 | 4.66256 | 6824 ft | 268 kts | 49° |
| 2026-05-07 11:46 | 52.09570 | 4.68512 | 7542 ft | 273 kts | 47° |
| 2026-05-07 11:46 | 52.10881 | 4.70784 | 8234 ft | 278 kts | 46° |
| 2026-05-07 11:46 | 52.12207 | 4.73032 | 8961 ft | 282 kts | 46° |
| 2026-05-07 11:47 | 52.13577 | 4.75340 | 9684 ft | 287 kts | 46° |
| 2026-05-07 11:47 | 52.14953 | 4.77726 | 10385 ft | 292 kts | 50° |
| 2026-05-07 11:47 | 52.16066 | 4.80510 | 10789 ft | 307 kts | 66° |
| 2026-05-07 11:47 | 52.16793 | 4.83881 | 11266 ft | 321 kts | 73° |
| 2026-05-07 11:48 | 52.17399 | 4.87447 | 11753 ft | 335 kts | 75° |
| 2026-05-07 11:48 | 52.18008 | 4.91103 | 12437 ft | 341 kts | 74° |
| 2026-05-07 11:48 | 52.18658 | 4.94828 | 13188 ft | 346 kts | 73° |
| 2026-05-07 11:48 | 52.19328 | 4.98615 | 13928 ft | 351 kts | 76° |
| 2026-05-07 11:49 | 52.19479 | 5.02559 | 14636 ft | 358 kts | 98° |
| 2026-05-07 11:49 | 52.18709 | 5.06399 | 15450 ft | 361 kts | 115° |
| 2026-05-07 11:49 | 52.17531 | 5.10025 | 16222 ft | 366 kts | 120° |
| 2026-05-07 11:49 | 52.16246 | 5.13598 | 16966 ft | 370 kts | 121° |
| 2026-05-07 11:50 | 52.14951 | 5.17213 | 17722 ft | 373 kts | 120° |
| 2026-05-07 11:50 | 52.13668 | 5.20894 | 18461 ft | 377 kts | 119° |
| 2026-05-07 11:50 | 52.12394 | 5.24662 | 19167 ft | 381 kts | 118° |
| 2026-05-07 11:50 | 52.11143 | 5.28436 | 19858 ft | 385 kts | 118° |
| 2026-05-07 11:51 | 52.09873 | 5.32315 | 20521 ft | 389 kts | 118° |
| 2026-05-07 11:51 | 52.08606 | 5.36202 | 21196 ft | 392 kts | 118° |
| 2026-05-07 11:51 | 52.07333 | 5.40108 | 21861 ft | 395 kts | 118° |
| 2026-05-07 11:51 | 52.06057 | 5.44022 | 22448 ft | 399 kts | 118° |
| 2026-05-07 11:52 | 52.04748 | 5.48028 | 23055 ft | 402 kts | 118° |
| 2026-05-07 11:52 | 52.03439 | 5.52025 | 23642 ft | 406 kts | 118° |
| 2026-05-07 11:52 | 52.02104 | 5.56095 | 24247 ft | 409 kts | 118° |
| 2026-05-07 11:52 | 52.00758 | 5.60189 | 24841 ft | 412 kts | 118° |
| 2026-05-07 11:53 | 51.99423 | 5.64242 | 25392 ft | 415 kts | 118° |
| 2026-05-07 11:53 | 51.98048 | 5.68404 | 25951 ft | 418 kts | 119° |
| 2026-05-07 11:53 | 51.96656 | 5.72615 | 26479 ft | 422 kts | 119° |
| 2026-05-07 11:53 | 51.95266 | 5.76812 | 26993 ft | 425 kts | 119° |
| 2026-05-07 11:54 | 51.93870 | 5.81018 | 27498 ft | 428 kts | 119° |
| 2026-05-07 11:54 | 51.92447 | 5.85300 | 27997 ft | 431 kts | 119° |
| 2026-05-07 11:54 | 51.90997 | 5.89654 | 28488 ft | 434 kts | 119° |
| 2026-05-07 11:54 | 51.89566 | 5.93942 | 28957 ft | 436 kts | 119° |
| 2026-05-07 11:55 | 51.88108 | 5.98307 | 29432 ft | 439 kts | 119° |
| 2026-05-07 11:55 | 51.86619 | 6.02626 | 29862 ft | 442 kts | 121° |
| 2026-05-07 11:55 | 51.84949 | 6.06879 | 30283 ft | 445 kts | 126° |
| 2026-05-07 11:55 | 51.83066 | 6.10872 | 30853 ft | 444 kts | 129° |
| 2026-05-07 11:56 | 51.81100 | 6.14628 | 31478 ft | 441 kts | 131° |
| 2026-05-07 11:56 | 51.79069 | 6.18325 | 32132 ft | 436 kts | 132° |
| 2026-05-07 11:56 | 51.77023 | 6.21973 | 32649 ft | 435 kts | 133° |
| 2026-05-07 11:56 | 51.74987 | 6.25586 | 33091 ft | 434 kts | 133° |
| 2026-05-07 11:57 | 51.72951 | 6.29207 | 33526 ft | 434 kts | 133° |
| 2026-05-07 11:57 | 51.70931 | 6.32815 | 33952 ft | 434 kts | 132° |
| 2026-05-07 11:57 | 51.68931 | 6.36400 | 34327 ft | 434 kts | 132° |
| 2026-05-07 11:57 | 51.66926 | 6.40007 | 34633 ft | 435 kts | 132° |
| 2026-05-07 11:58 | 51.64896 | 6.43664 | 34961 ft | 434 kts | 132° |
| 2026-05-07 11:58 | 51.62878 | 6.47305 | 35227 ft | 435 kts | 131° |
| 2026-05-07 11:58 | 51.60869 | 6.50932 | 35488 ft | 435 kts | 131° |
| 2026-05-07 11:58 | 51.58854 | 6.54570 | 35720 ft | 436 kts | 131° |
| 2026-05-07 11:59 | 51.56838 | 6.58205 | 35923 ft | 438 kts | 131° |
| 2026-05-07 11:59 | 51.54797 | 6.61882 | 36111 ft | 439 kts | 131° |
| 2026-05-07 11:59 | 51.52759 | 6.65549 | 36391 ft | 438 kts | 133° |
| 2026-05-07 11:59 | 51.50877 | 6.68933 | 36674 ft | 435 kts | 133° |
| 2026-05-07 12:00 | 51.49073 | 6.72171 | 36927 ft | 433 kts | 133° |
| 2026-05-07 12:00 | 51.45010 | 6.79447 | 37009 ft | 439 kts | 133° |
| 2026-05-07 12:01 | 51.40940 | 6.86711 | 37018 ft | 436 kts | 133° |
| 2026-05-07 12:01 | 51.36717 | 6.93764 | 37017 ft | 436 kts | 136° |
| 2026-05-07 12:02 | 51.32349 | 7.00467 | 37007 ft | 436 kts | 137° |
| 2026-05-07 12:02 | 51.27938 | 7.07156 | 37014 ft | 437 kts | 137° |
| 2026-05-07 12:03 | 51.23582 | 7.13794 | 37023 ft | 436 kts | 137° |
| 2026-05-07 12:03 | 51.19205 | 7.20490 | 37022 ft | 436 kts | 137° |
| 2026-05-07 12:04 | 51.14824 | 7.27202 | 37023 ft | 436 kts | 136° |
| 2026-05-07 12:04 | 51.10463 | 7.33873 | 37028 ft | 436 kts | 136° |
| 2026-05-07 12:05 | 51.06083 | 7.40561 | 37025 ft | 436 kts | 137° |
| 2026-05-07 12:05 | 51.01732 | 7.47186 | 37028 ft | 436 kts | 137° |
| 2026-05-07 12:06 | 50.97348 | 7.53843 | 37024 ft | 436 kts | 136° |
| 2026-05-07 12:06 | 50.92944 | 7.60514 | 37023 ft | 437 kts | 136° |
| 2026-05-07 12:07 | 50.88601 | 7.67073 | 37025 ft | 437 kts | 137° |
| 2026-05-07 12:07 | 50.84178 | 7.73736 | 37024 ft | 437 kts | 137° |
| 2026-05-07 12:08 | 50.79783 | 7.80317 | 37025 ft | 436 kts | 137° |
| 2026-05-07 12:08 | 50.75387 | 7.86860 | 37018 ft | 436 kts | 137° |
| 2026-05-07 12:09 | 50.70953 | 7.93439 | 37013 ft | 437 kts | 137° |
| 2026-05-07 12:09 | 50.66524 | 7.99995 | 37019 ft | 437 kts | 138° |
| 2026-05-07 12:10 | 50.62120 | 8.06500 | 37018 ft | 437 kts | 137° |
| 2026-05-07 12:10 | 50.57919 | 8.13418 | 37019 ft | 437 kts | 131° |
| 2026-05-07 12:11 | 50.54114 | 8.20856 | 37011 ft | 437 kts | 128° |
| 2026-05-07 12:11 | 50.50373 | 8.28407 | 37008 ft | 437 kts | 128° |
| 2026-05-07 12:12 | 50.46613 | 8.35917 | 37007 ft | 437 kts | 129° |
| 2026-05-07 12:12 | 50.42860 | 8.43312 | 36999 ft | 437 kts | 129° |
| 2026-05-07 12:13 | 50.39059 | 8.50736 | 36994 ft | 438 kts | 129° |
| 2026-05-07 12:13 | 50.35143 | 8.58028 | 36989 ft | 438 kts | 133° |
| 2026-05-07 12:14 | 50.30978 | 8.64987 | 36995 ft | 438 kts | 134° |
| 2026-05-07 12:14 | 50.26776 | 8.71853 | 36999 ft | 437 kts | 135° |
| 2026-05-07 12:15 | 50.22586 | 8.78730 | 37000 ft | 437 kts | 135° |
| 2026-05-07 12:15 | 50.18395 | 8.85642 | 37005 ft | 438 kts | 135° |
| 2026-05-07 12:16 | 50.14228 | 8.92528 | 37000 ft | 437 kts | 135° |
| 2026-05-07 12:16 | 50.10059 | 8.99412 | 37001 ft | 438 kts | 135° |
| 2026-05-07 12:17 | 50.05895 | 9.06276 | 37001 ft | 439 kts | 135° |
| 2026-05-07 12:17 | 50.01712 | 9.13154 | 37003 ft | 440 kts | 135° |
| 2026-05-07 12:18 | 49.97522 | 9.20027 | 37004 ft | 440 kts | 135° |
| 2026-05-07 12:18 | 49.93314 | 9.26910 | 36992 ft | 439 kts | 135° |
| 2026-05-07 12:19 | 49.89131 | 9.33731 | 36991 ft | 440 kts | 135° |
| 2026-05-07 12:19 | 49.84895 | 9.40622 | 36992 ft | 439 kts | 135° |
| 2026-05-07 12:20 | 49.80690 | 9.47444 | 36986 ft | 439 kts | 135° |
| 2026-05-07 12:20 | 49.76489 | 9.54241 | 36997 ft | 440 kts | 135° |
| 2026-05-07 12:21 | 49.72264 | 9.61059 | 36998 ft | 439 kts | 135° |
| 2026-05-07 12:21 | 49.68054 | 9.67834 | 37001 ft | 440 kts | 136° |
| 2026-05-07 12:22 | 49.63814 | 9.74638 | 36997 ft | 441 kts | 136° |
| 2026-05-07 12:22 | 49.59565 | 9.81439 | 37005 ft | 442 kts | 136° |
| 2026-05-07 12:23 | 49.55300 | 9.88248 | 37004 ft | 441 kts | 136° |
| 2026-05-07 12:23 | 49.51041 | 9.95028 | 36998 ft | 441 kts | 136° |
| 2026-05-07 12:24 | 49.46773 | 10.01806 | 37003 ft | 441 kts | 136° |
| 2026-05-07 12:24 | 49.42545 | 10.08501 | 37007 ft | 440 kts | 136° |
| 2026-05-07 12:25 | 49.38267 | 10.15256 | 37007 ft | 440 kts | 136° |
| 2026-05-07 12:25 | 49.33975 | 10.21985 | 37006 ft | 440 kts | 137° |
| 2026-05-07 12:26 | 49.29536 | 10.28384 | 37006 ft | 440 kts | 139° |
| 2026-05-07 12:26 | 49.25005 | 10.34665 | 37008 ft | 440 kts | 140° |
| 2026-05-07 12:27 | 49.20472 | 10.40952 | 37006 ft | 440 kts | 139° |
| 2026-05-07 12:27 | 49.15952 | 10.47253 | 37005 ft | 439 kts | 139° |
| 2026-05-07 12:28 | 49.11459 | 10.53536 | 36997 ft | 440 kts | 139° |
| 2026-05-07 12:28 | 49.06959 | 10.59829 | 36998 ft | 439 kts | 139° |
| 2026-05-07 12:29 | 49.02486 | 10.66077 | 36991 ft | 439 kts | 140° |
| 2026-05-07 12:29 | 48.97989 | 10.72342 | 36990 ft | 439 kts | 140° |
| 2026-05-07 12:30 | 48.93493 | 10.78593 | 36989 ft | 439 kts | 140° |
| 2026-05-07 12:30 | 48.88972 | 10.84861 | 36991 ft | 439 kts | 140° |
| 2026-05-07 12:31 | 48.84483 | 10.91071 | 36997 ft | 439 kts | 140° |
| 2026-05-07 12:31 | 48.79953 | 10.97319 | 37001 ft | 439 kts | 140° |
| 2026-05-07 12:32 | 48.75429 | 11.03543 | 37011 ft | 440 kts | 140° |
| 2026-05-07 12:32 | 48.70921 | 11.09729 | 37012 ft | 439 kts | 140° |
| 2026-05-07 12:33 | 48.64133 | 11.19018 | 37011 ft | 439 kts | 140° |
| 2026-05-07 12:33 | 48.59637 | 11.25151 | 37011 ft | 438 kts | 140° |
| 2026-05-07 12:34 | 48.55077 | 11.31353 | 37009 ft | 439 kts | 140° |
| 2026-05-07 12:34 | 48.50554 | 11.37492 | 37009 ft | 439 kts | 141° |
| 2026-05-07 12:35 | 48.46034 | 11.43610 | 37008 ft | 438 kts | 141° |
| 2026-05-07 12:35 | 48.41507 | 11.49723 | 37007 ft | 438 kts | 141° |
| 2026-05-07 12:36 | 48.36962 | 11.55843 | 37007 ft | 438 kts | 141° |
| 2026-05-07 12:36 | 48.32426 | 11.61935 | 37010 ft | 437 kts | 141° |
| 2026-05-07 12:37 | 48.27879 | 11.68027 | 37010 ft | 437 kts | 142° |
| 2026-05-07 12:37 | 48.23360 | 11.74068 | 37009 ft | 437 kts | 142° |
| 2026-05-07 12:38 | 48.18784 | 11.80170 | 37007 ft | 438 kts | 142° |
| 2026-05-07 12:38 | 48.14240 | 11.86212 | 37002 ft | 437 kts | 142° |
| 2026-05-07 12:39 | 48.09711 | 11.92222 | 36996 ft | 437 kts | 142° |
| 2026-05-07 12:39 | 48.05147 | 11.98263 | 36986 ft | 436 kts | 142° |
| 2026-05-07 12:40 | 48.00614 | 12.04248 | 36978 ft | 435 kts | 142° |
| 2026-05-07 12:40 | 47.96068 | 12.10235 | 36977 ft | 436 kts | 142° |
| 2026-05-07 12:41 | 47.91519 | 12.16210 | 36977 ft | 435 kts | 142° |
| 2026-05-07 12:41 | 47.86971 | 12.22170 | 36986 ft | 437 kts | 142° |
| 2026-05-07 12:42 | 47.82387 | 12.28163 | 36983 ft | 437 kts | 142° |
| 2026-05-07 12:42 | 47.77844 | 12.34089 | 36984 ft | 437 kts | 142° |
| 2026-05-07 12:43 | 47.73288 | 12.40016 | 36982 ft | 437 kts | 142° |
| 2026-05-07 12:43 | 47.68702 | 12.45969 | 36984 ft | 436 kts | 143° |
| 2026-05-07 12:44 | 47.64137 | 12.51827 | 36996 ft | 435 kts | 144° |
| 2026-05-07 12:44 | 47.59222 | 12.56974 | 37000 ft | 430 kts | 153° |
| 2026-05-07 12:45 | 47.54068 | 12.61341 | 36996 ft | 428 kts | 155° |
| 2026-05-07 12:45 | 47.48859 | 12.65578 | 36997 ft | 428 kts | 156° |
| 2026-05-07 12:46 | 47.43631 | 12.69859 | 37003 ft | 428 kts | 155° |
| 2026-05-07 12:46 | 47.38469 | 12.74122 | 37001 ft | 428 kts | 155° |
| 2026-05-07 12:47 | 47.33279 | 12.78425 | 36995 ft | 427 kts | 155° |
| 2026-05-07 12:47 | 47.28074 | 12.82744 | 37003 ft | 428 kts | 155° |
| 2026-05-07 12:48 | 47.22884 | 12.87044 | 37002 ft | 428 kts | 155° |
| 2026-05-07 12:48 | 47.17712 | 12.91323 | 36991 ft | 428 kts | 156° |
| 2026-05-07 12:49 | 47.12544 | 12.95591 | 36972 ft | 428 kts | 155° |
| 2026-05-07 12:49 | 47.07369 | 12.99857 | 36961 ft | 428 kts | 155° |
| 2026-05-07 12:50 | 47.02183 | 13.04120 | 36957 ft | 427 kts | 155° |
| 2026-05-07 12:50 | 46.96979 | 13.08388 | 36953 ft | 426 kts | 156° |
| 2026-05-07 12:51 | 46.91825 | 13.12603 | 36970 ft | 426 kts | 156° |
| 2026-05-07 12:51 | 46.86653 | 13.16822 | 36989 ft | 426 kts | 156° |
| 2026-05-07 12:52 | 46.81441 | 13.21067 | 37003 ft | 427 kts | 156° |
| 2026-05-07 12:52 | 46.76270 | 13.25271 | 36994 ft | 427 kts | 156° |
| 2026-05-07 12:53 | 46.71098 | 13.29465 | 36983 ft | 425 kts | 156° |
| 2026-05-07 12:53 | 46.65921 | 13.33653 | 36985 ft | 426 kts | 156° |
| 2026-05-07 12:54 | 46.60729 | 13.37843 | 36997 ft | 427 kts | 156° |
| 2026-05-07 12:54 | 46.55570 | 13.42000 | 36985 ft | 424 kts | 156° |
| 2026-05-07 12:55 | 46.50417 | 13.46142 | 36983 ft | 425 kts | 156° |
| 2026-05-07 12:55 | 46.45221 | 13.50309 | 36978 ft | 424 kts | 156° |
| 2026-05-07 12:56 | 46.40032 | 13.54404 | 36975 ft | 423 kts | 159° |
| 2026-05-07 12:56 | 46.34726 | 13.57972 | 36977 ft | 420 kts | 162° |
| 2026-05-07 12:57 | 46.29356 | 13.61342 | 36974 ft | 419 kts | 162° |
| 2026-05-07 12:57 | 46.24035 | 13.64692 | 36983 ft | 420 kts | 162° |
| 2026-05-07 12:58 | 46.18706 | 13.68090 | 36976 ft | 419 kts | 162° |
| 2026-05-07 12:58 | 46.13380 | 13.71506 | 36991 ft | 420 kts | 162° |
| 2026-05-07 12:59 | 46.08047 | 13.74933 | 36979 ft | 420 kts | 163° |
| 2026-05-07 12:59 | 46.02732 | 13.78344 | 36975 ft | 423 kts | 162° |
| 2026-05-07 13:00 | 45.97329 | 13.81804 | 36981 ft | 422 kts | 162° |
| 2026-05-07 13:00 | 45.91970 | 13.85236 | 36985 ft | 421 kts | 163° |
| 2026-05-07 13:01 | 45.86728 | 13.88585 | 36988 ft | 421 kts | 163° |
| 2026-05-07 13:01 | 45.81398 | 13.91980 | 36995 ft | 422 kts | 162° |
| 2026-05-07 13:02 | 45.76016 | 13.95401 | 36981 ft | 421 kts | 163° |
| 2026-05-07 13:02 | 45.70647 | 13.98807 | 36994 ft | 421 kts | 162° |
| 2026-05-07 13:03 | 45.65274 | 14.02208 | 37000 ft | 421 kts | 163° |
| 2026-05-07 13:03 | 45.59952 | 14.05570 | 37000 ft | 421 kts | 163° |
| 2026-05-07 13:04 | 45.54599 | 14.08946 | 36992 ft | 420 kts | 163° |
| 2026-05-07 13:04 | 45.49233 | 14.12319 | 36999 ft | 422 kts | 163° |
| 2026-05-07 13:05 | 45.43909 | 14.15752 | 37005 ft | 423 kts | 162° |
| 2026-05-07 13:05 | 45.38600 | 14.19388 | 37001 ft | 423 kts | 161° |
| 2026-05-07 13:06 | 45.33333 | 14.23021 | 36997 ft | 424 kts | 161° |
| 2026-05-07 13:06 | 45.28033 | 14.26651 | 36999 ft | 423 kts | 161° |
| 2026-05-07 13:07 | 45.22704 | 14.30276 | 36996 ft | 424 kts | 161° |
| 2026-05-07 13:07 | 45.17401 | 14.33868 | 36985 ft | 424 kts | 161° |
| 2026-05-07 13:08 | 45.12099 | 14.37449 | 37000 ft | 425 kts | 161° |
| 2026-05-07 13:08 | 45.06799 | 14.41021 | 36989 ft | 421 kts | 161° |
| 2026-05-07 13:09 | 45.01470 | 14.44601 | 36997 ft | 424 kts | 161° |
| 2026-05-07 13:09 | 44.96138 | 14.48174 | 36987 ft | 423 kts | 161° |
| 2026-05-07 13:10 | 44.90821 | 14.51735 | 36993 ft | 425 kts | 161° |
| 2026-05-07 13:10 | 44.85500 | 14.55289 | 37000 ft | 424 kts | 161° |
| 2026-05-07 13:11 | 44.80167 | 14.58846 | 36994 ft | 425 kts | 161° |
| 2026-05-07 13:11 | 44.74831 | 14.62401 | 36756 ft | 420 kts | 162° |
| 2026-05-07 13:12 | 44.72188 | 14.64162 | 36284 ft | 418 kts | 162° |
| 2026-05-07 13:12 | 44.69573 | 14.65901 | 35816 ft | 419 kts | 162° |
| 2026-05-07 13:12 | 44.66921 | 14.67679 | 35168 ft | 424 kts | 162° |
| 2026-05-07 13:12 | 44.64289 | 14.69460 | 34619 ft | 424 kts | 162° |
| 2026-05-07 13:13 | 44.61630 | 14.71271 | 34023 ft | 423 kts | 162° |
| 2026-05-07 13:13 | 44.59011 | 14.73058 | 33500 ft | 419 kts | 162° |
| 2026-05-07 13:13 | 44.56419 | 14.74827 | 32994 ft | 415 kts | 162° |
| 2026-05-07 13:13 | 44.53802 | 14.76609 | 32482 ft | 412 kts | 162° |
| 2026-05-07 13:14 | 44.51265 | 14.78333 | 31992 ft | 408 kts | 162° |
| 2026-05-07 13:14 | 44.48714 | 14.80063 | 31500 ft | 404 kts | 162° |
| 2026-05-07 13:14 | 44.46205 | 14.81763 | 31013 ft | 400 kts | 162° |
| 2026-05-07 13:14 | 44.43714 | 14.83447 | 30512 ft | 396 kts | 162° |
| 2026-05-07 13:15 | 44.41270 | 14.85096 | 30030 ft | 392 kts | 162° |
| 2026-05-07 13:15 | 44.38823 | 14.86744 | 29548 ft | 388 kts | 162° |
| 2026-05-07 13:15 | 44.36416 | 14.88364 | 29074 ft | 385 kts | 162° |
| 2026-05-07 13:15 | 44.34015 | 14.89979 | 28605 ft | 381 kts | 162° |
| 2026-05-07 13:16 | 44.31643 | 14.91573 | 28122 ft | 378 kts | 162° |
| 2026-05-07 13:16 | 44.29280 | 14.93159 | 27657 ft | 374 kts | 162° |
| 2026-05-07 13:16 | 44.26969 | 14.94708 | 27196 ft | 371 kts | 162° |
| 2026-05-07 13:16 | 44.24652 | 14.96261 | 26742 ft | 368 kts | 161° |
| 2026-05-07 13:17 | 44.22349 | 14.97804 | 26274 ft | 365 kts | 162° |
| 2026-05-07 13:17 | 44.20069 | 14.99329 | 25819 ft | 362 kts | 162° |
| 2026-05-07 13:17 | 44.17825 | 15.00827 | 25368 ft | 359 kts | 162° |
| 2026-05-07 13:17 | 44.15601 | 15.02309 | 24924 ft | 355 kts | 162° |
| 2026-05-07 13:18 | 44.13378 | 15.03791 | 24471 ft | 352 kts | 161° |
| 2026-05-07 13:18 | 44.11174 | 15.05259 | 24026 ft | 349 kts | 161° |
| 2026-05-07 13:18 | 44.09011 | 15.06699 | 23586 ft | 346 kts | 161° |
| 2026-05-07 13:18 | 44.06838 | 15.08145 | 23154 ft | 343 kts | 161° |
| 2026-05-07 13:19 | 44.04698 | 15.09567 | 22723 ft | 340 kts | 161° |
| 2026-05-07 13:19 | 44.02592 | 15.10966 | 22291 ft | 338 kts | 161° |
| 2026-05-07 13:19 | 44.00472 | 15.12387 | 21819 ft | 337 kts | 159° |
| 2026-05-07 13:19 | 43.98499 | 15.14169 | 21159 ft | 346 kts | 145° |
| 2026-05-07 13:20 | 43.96789 | 15.16506 | 20579 ft | 348 kts | 138° |
| 2026-05-07 13:20 | 43.95215 | 15.19029 | 20049 ft | 346 kts | 135° |
| 2026-05-07 13:20 | 43.93691 | 15.21566 | 19500 ft | 343 kts | 135° |
| 2026-05-07 13:20 | 43.92160 | 15.24094 | 18916 ft | 340 kts | 136° |
| 2026-05-07 13:21 | 43.90634 | 15.26562 | 18348 ft | 337 kts | 136° |
| 2026-05-07 13:21 | 43.89118 | 15.28970 | 17802 ft | 334 kts | 136° |
| 2026-05-07 13:21 | 43.87585 | 15.31364 | 17257 ft | 331 kts | 136° |
| 2026-05-07 13:21 | 43.86061 | 15.33719 | 16689 ft | 328 kts | 136° |
| 2026-05-07 13:22 | 43.84545 | 15.36046 | 16145 ft | 325 kts | 136° |
| 2026-05-07 13:22 | 43.83038 | 15.38352 | 15588 ft | 323 kts | 136° |
| 2026-05-07 13:22 | 43.81546 | 15.40636 | 15027 ft | 321 kts | 136° |
| 2026-05-07 13:22 | 43.80049 | 15.42926 | 14476 ft | 318 kts | 135° |
| 2026-05-07 13:23 | 43.78593 | 15.45153 | 13948 ft | 315 kts | 135° |
| 2026-05-07 13:23 | 43.77116 | 15.47412 | 13388 ft | 313 kts | 135° |
| 2026-05-07 13:23 | 43.75663 | 15.49631 | 12867 ft | 310 kts | 135° |
| 2026-05-07 13:23 | 43.74238 | 15.51807 | 12456 ft | 303 kts | 135° |
| 2026-05-07 13:24 | 43.72838 | 15.53943 | 12084 ft | 299 kts | 134° |
| 2026-05-07 13:24 | 43.71439 | 15.56074 | 11694 ft | 297 kts | 134° |
| 2026-05-07 13:24 | 43.70056 | 15.58179 | 11320 ft | 297 kts | 134° |
| 2026-05-07 13:24 | 43.68675 | 15.60277 | 10947 ft | 301 kts | 134° |
| 2026-05-07 13:25 | 43.67271 | 15.62413 | 10540 ft | 300 kts | 134° |
| 2026-05-07 13:25 | 43.65858 | 15.64560 | 10169 ft | 298 kts | 134° |
| 2026-05-07 13:25 | 43.64478 | 15.66658 | 9797 ft | 296 kts | 135° |
| 2026-05-07 13:25 | 43.63112 | 15.68732 | 9419 ft | 294 kts | 134° |
| 2026-05-07 13:26 | 43.61728 | 15.70829 | 9036 ft | 292 kts | 134° |
| 2026-05-07 13:26 | 43.60387 | 15.72859 | 8666 ft | 289 kts | 134° |
| 2026-05-07 13:26 | 43.59040 | 15.74895 | 8299 ft | 286 kts | 134° |
| 2026-05-07 13:26 | 43.57699 | 15.76923 | 7938 ft | 283 kts | 134° |
| 2026-05-07 13:27 | 43.56379 | 15.78917 | 7572 ft | 280 kts | 134° |
| 2026-05-07 13:27 | 43.56176 | 15.79222 | 7516 ft | 280 kts | 134° |
| 2026-05-07 13:27 | 43.52964 | 15.84066 | 6278 ft | 282 kts | 133° |
| 2026-05-07 13:27 | 43.51651 | 15.86048 | 5847 ft | 280 kts | 133° |
| 2026-05-07 13:28 | 43.48856 | 15.90269 | 5572 ft | 271 kts | 133° |
| 2026-05-07 13:28 | 43.47597 | 15.92163 | 5311 ft | 264 kts | 133° |
| 2026-05-07 13:28 | 43.46389 | 15.93979 | 5081 ft | 257 kts | 132° |
| 2026-05-07 13:28 | 43.45193 | 15.95775 | 4856 ft | 251 kts | 132° |
| 2026-05-07 13:29 | 43.44029 | 15.97524 | 4601 ft | 247 kts | 131° |
| 2026-05-07 13:29 | 43.42879 | 15.99255 | 4301 ft | 244 kts | 131° |
| 2026-05-07 13:29 | 43.41749 | 16.00959 | 4015 ft | 238 kts | 130° |
| 2026-05-07 13:29 | 43.40799 | 16.02780 | 3782 ft | 227 kts | 114° |
| 2026-05-07 13:30 | 43.40528 | 16.04822 | 3566 ft | 216 kts | 82° |
| 2026-05-07 13:30 | 43.41025 | 16.06674 | 3454 ft | 205 kts | 60° |
| 2026-05-07 13:30 | 43.41833 | 16.08262 | 3301 ft | 198 kts | 56° |
| 2026-05-07 13:30 | 43.42656 | 16.09747 | 3122 ft | 191 kts | 56° |
| 2026-05-07 13:31 | 43.43442 | 16.11150 | 2957 ft | 185 kts | 56° |
| 2026-05-07 13:31 | 43.44221 | 16.12538 | 2921 ft | 184 kts | 56° |
| 2026-05-07 13:31 | 43.45005 | 16.13934 | 2731 ft | 182 kts | 56° |
| 2026-05-07 13:31 | 43.45760 | 16.15274 | 2449 ft | 171 kts | 56° |
| 2026-05-07 13:32 | 43.46470 | 16.16538 | 2248 ft | 163 kts | 57° |
| 2026-05-07 13:32 | 43.47157 | 16.17768 | 2023 ft | 164 kts | 57° |
| 2026-05-07 13:32 | 43.47847 | 16.18996 | 1800 ft | 161 kts | 57° |
| 2026-05-07 13:32 | 43.48526 | 16.20207 | 1573 ft | 155 kts | 56° |
| 2026-05-07 13:33 | 43.49151 | 16.21321 | 1395 ft | 148 kts | 56° |
| 2026-05-07 13:33 | 43.49775 | 16.22438 | 1175 ft | 144 kts | 56° |
| 2026-05-07 13:33 | 43.50391 | 16.23534 | 994 ft | 145 kts | 55° |
| 2026-05-07 13:33 | 43.51008 | 16.24628 | 761 ft | 144 kts | 54° |
| 2026-05-07 13:34 | 43.51609 | 16.25678 | 599 ft | 137 kts | 54° |
| 2026-05-07 13:34 | 43.52788 | 16.27820 | 232 ft | 142 kts | 53° |
| 2026-05-07 13:34 | 43.53401 | 16.28909 | 67 ft | 141 kts | 53° |
| 2026-05-07 13:35 | 43.53898 | 16.29808 | 58 ft | 77 kts | 51° |
| 2026-05-07 13:35 | 43.54058 | 16.30102 | 57 ft | 16 kts | 70° |
| 2026-05-07 13:35 | 43.54007 | 16.30100 | 57 ft | 10 kts | 205° |
| 2026-05-07 13:35 | 43.53939 | 16.30071 | 57 ft | 10 kts | 195° |
| 2026-05-07 13:36 | 43.53880 | 16.30030 | 57 ft | 9 kts | 234° |
| 2026-05-07 13:36 | 43.53845 | 16.29950 | 57 ft | 12 kts | 236° |
| 2026-05-07 13:36 | 43.53776 | 16.29825 | 57 ft | 16 kts | 231° |
| 2026-05-07 13:36 | 43.53712 | 16.29710 | 58 ft | 13 kts | 232° |
| 2026-05-07 13:37 | 43.53664 | 16.29624 | 59 ft | 10 kts | 229° |
| 2026-05-07 13:37 | 43.53625 | 16.29624 | 58 ft | 6 kts | 86° |
| 2026-05-07 13:37 | 43.53621 | 16.29652 | 58 ft | 2 kts | 100° |
| 2026-05-07 13:37 | 43.53621 | 16.29664 | 58 ft | 1 kts | 95° |
| 2026-05-07 13:38 | 43.53621 | 16.29667 | 58 ft | 0 kts | 94° |